Terminal Aerodrome Forecast
Issued by NWS Wakefield, VA

Home | Current Version | Previous Version | Text Only | Print | Product List | Glossary On
Versions: 1 2 3 4 5 6 7 8 9 10 11 12 13 14 15 16 17
000
FTUS41 KAKQ 280155 AAA
TAFORF
TAF AMD
KORF 280155Z 2802/2824 19011KT P6SM SKC
     FM280700 21009KT P6SM BKN250
     FM281100 21008KT P6SM SCT035 BKN250
     FM282000 20013KT P6SM BKN040 BKN100=

USA.gov is the U.S. government's official web portal to all federal, state and local government web resources and services.